Time;durP1;ratioP1;P1;durP2;ratioP2;P2;SDS_P1;SDS_P2;PMS_P1;PMS_P2;Temp;Humidity;BMP_temperature;BMP_pressure;BME280_temperature;BME280_humidity;BME280_pressure;Samples;Min_cycle;Max_cycle;Signal;HPM_P1;HPM_P2
2022/12/19 05:30:14;;;;;;;;;21.00;16.67;;;;;;;;6063199;22;46222;-58
2022/12/19 05:32:39;;;;;;;;;19.33;18.33;;;;;;;;5028907;28;45444;-57
2022/12/19 05:35:05;;;;;;;;;20.67;20.00;;;;;;;;5031880;28;45502;-58
2022/12/19 05:37:30;;;;;;;;;17.00;13.33;;;;;;;;5029298;28;45213;-58
2022/12/19 05:39:55;;;;;;;;;15.67;15.67;;;;;;;;5031675;28;46152;-58
2022/12/19 05:42:20;;;;;;;;;16.67;16.67;;;;;;;;5035828;28;45786;-58
2022/12/19 05:44:46;;;;;;;;;17.67;14.00;;;;;;;;5029561;28;45514;-58
2022/12/19 05:47:11;;;;;;;;;16.67;15.67;;;;;;;;5027548;28;45283;-57
2022/12/19 05:49:36;;;;;;;;;17.00;15.67;;;;;;;;5028432;28;46128;-58
2022/12/19 05:52:01;;;;;;;;;13.33;12.33;;;;;;;;5029360;28;45448;-58
2022/12/19 05:54:27;;;;;;;;;18.33;17.67;;;;;;;;5030851;28;45527;-57
2022/12/19 05:56:52;;;;;;;;;14.33;14.00;;;;;;;;5028525;28;45245;-59
2022/12/19 05:59:17;;;;;;;;;16.00;15.33;;;;;;;;5032720;28;46302;-57
2022/12/19 06:01:42;;;;;;;;;15.67;13.00;;;;;;;;5026304;28;45504;-58
2022/12/19 06:04:07;;;;;;;;;15.67;10.00;;;;;;;;5025066;28;45130;-58
2022/12/19 06:06:33;;;;;;;;;11.33;11.33;;;;;;;;5020377;28;45286;-58
2022/12/19 06:08:58;;;;;;;;;16.67;13.00;;;;;;;;5019475;28;45442;-58
2022/12/19 06:11:24;;;;;;;;;16.00;14.67;;;;;;;;5034896;28;45402;-58
2022/12/19 06:13:49;;;;;;;;;14.33;14.00;;;;;;;;5027968;28;45596;-58
2022/12/19 06:16:16;;;;;;;;;15.00;14.33;;;;;;;;5023754;28;45427;-59
2022/12/19 06:18:42;;;;;;;;;13.00;11.33;;;;;;;;5035083;28;45302;-58
2022/12/19 06:21:12;;;;;;;;;13.00;13.00;;;;;;;;5030627;28;46180;-58
2022/12/19 06:23:37;;;;;;;;;13.00;12.00;;;;;;;;5026516;28;45545;-58
2022/12/19 06:26:04;;;;;;;;;14.33;11.67;;;;;;;;5028205;28;45675;-58
2022/12/19 06:28:29;;;;;;;;;14.33;13.67;;;;;;;;5027234;28;46581;-58
2022/12/19 06:33:57;;;;;;;;;15.00;14.67;;;;;;;;5022555;28;45499;-59
2022/12/19 06:36:24;;;;;;;;;12.33;10.00;;;;;;;;5030261;28;45300;-59
2022/12/19 06:38:50;;;;;;;;;18.33;12.00;;;;;;;;5030470;28;46105;-59
2022/12/19 06:44:00;;;;;;;;;12.67;12.00;;;;;;;;5026900;28;45284;-59
2022/12/19 06:46:25;;;;;;;;;14.00;11.67;;;;;;;;5030097;28;45426;-59
2022/12/19 06:48:51;;;;;;;;;14.67;11.33;;;;;;;;5027444;28;45492;-59
2022/12/19 06:51:16;;;;;;;;;13.00;13.00;;;;;;;;5028620;28;45415;-59
2022/12/19 06:53:42;;;;;;;;;12.00;12.00;;;;;;;;5035917;28;45302;-59
2022/12/19 06:56:07;;;;;;;;;13.33;12.33;;;;;;;;5037301;28;45355;-59
2022/12/19 06:58:32;;;;;;;;;16.67;14.00;;;;;;;;5035848;28;46188;-59
2022/12/19 07:00:57;;;;;;;;;12.00;12.00;;;;;;;;5043167;28;45347;-59
2022/12/19 07:03:24;;;;;;;;;16.00;13.00;;;;;;;;5025938;28;45291;-59
2022/12/19 07:05:49;;;;;;;;;16.33;13.67;;;;;;;;5030587;28;48725;-59
2022/12/19 07:08:14;;;;;;;;;17.00;13.67;;;;;;;;5023004;28;45542;-59
2022/12/19 07:10:40;;;;;;;;;13.00;12.00;;;;;;;;5034913;28;45318;-58
2022/12/19 07:13:05;;;;;;;;;13.00;12.00;;;;;;;;5032999;28;45217;-59
2022/12/19 07:15:32;;;;;;;;;16.33;14.00;;;;;;;;5023312;28;45416;-59
2022/12/19 07:17:58;;;;;;;;;17.00;12.33;;;;;;;;5018465;28;45363;-59
2022/12/19 07:20:23;;;;;;;;;10.33;9.67;;;;;;;;5024660;28;45253;-59
2022/12/19 07:22:48;;;;;;;;;11.67;11.67;;;;;;;;5017763;28;45135;-59
2022/12/19 07:25:16;;;;;;;;;13.67;13.67;;;;;;;;5034242;28;45580;-60
2022/12/19 07:27:41;;;;;;;;;14.67;11.33;;;;;;;;5025976;28;45419;-58
2022/12/19 07:30:10;;;;;;;;;12.33;11.67;;;;;;;;5028942;28;45615;-61
2022/12/19 07:32:35;;;;;;;;;15.00;10.67;;;;;;;;5033474;28;45341;-58
2022/12/19 07:35:01;;;;;;;;;18.33;11.00;;;;;;;;5032171;28;45467;-58
2022/12/19 07:37:26;;;;;;;;;12.67;12.00;;;;;;;;5025479;28;46958;-58
2022/12/19 07:39:52;;;;;;;;;15.00;10.33;;;;;;;;5033814;28;47374;-59
2022/12/19 07:42:17;;;;;;;;;13.33;11.33;;;;;;;;5034815;28;45652;-57
2022/12/19 07:44:42;;;;;;;;;10.00;10.00;;;;;;;;5025521;28;45501;-56
2022/12/19 07:47:07;;;;;;;;;13.67;13.67;;;;;;;;5028997;28;46066;-58
2022/12/19 07:49:33;;;;;;;;;14.67;12.67;;;;;;;;5024386;28;45211;-58
2022/12/19 07:51:58;;;;;;;;;15.33;12.33;;;;;;;;5033205;28;45224;-58
2022/12/19 07:54:23;;;;;;;;;11.33;10.67;;;;;;;;5036510;28;45311;-58
2022/12/19 07:56:48;;;;;;;;;18.00;11.33;;;;;;;;5023670;28;45523;-57
2022/12/19 07:59:14;;;;;;;;;14.67;13.00;;;;;;;;5028685;28;45359;-58
2022/12/19 08:01:39;;;;;;;;;12.00;12.00;;;;;;;;5026960;28;45529;-58
2022/12/19 08:04:04;;;;;;;;;12.33;12.33;;;;;;;;5031979;28;45517;-57
2022/12/19 08:06:29;;;;;;;;;14.00;13.33;;;;;;;;5028921;28;46203;-58
2022/12/19 08:08:54;;;;;;;;;10.33;10.00;;;;;;;;5031931;28;45477;-58
2022/12/19 08:11:28;;;;;;;;;12.00;9.33;;;;;;;;5036383;28;45217;-58
2022/12/19 08:13:54;;;;;;;;;13.33;11.33;;;;;;;;5022930;28;45352;-58
2022/12/19 08:16:19;;;;;;;;;10.00;9.67;;;;;;;;5030990;28;46008;-58
2022/12/19 08:18:44;;;;;;;;;12.33;11.00;;;;;;;;5031655;28;45650;-58
2022/12/19 08:21:09;;;;;;;;;10.33;10.00;;;;;;;;5035176;28;45258;-59
2022/12/19 08:23:35;;;;;;;;;11.33;9.67;;;;;;;;5036034;28;45188;-58
2022/12/19 08:26:02;;;;;;;;;13.00;11.00;;;;;;;;5026578;28;45535;-56
2022/12/19 08:28:28;;;;;;;;;12.00;12.00;;;;;;;;5037109;28;45582;-56
2022/12/19 08:30:53;;;;;;;;;13.00;12.67;;;;;;;;5034479;28;45363;-57
2022/12/19 08:33:18;;;;;;;;;9.67;9.67;;;;;;;;5038939;28;45278;-55
2022/12/19 08:35:44;;;;;;;;;10.00;9.67;;;;;;;;5029403;28;45484;-55
2022/12/19 08:38:09;;;;;;;;;14.33;11.67;;;;;;;;5033145;28;45447;-56
2022/12/19 08:40:34;;;;;;;;;12.67;10.67;;;;;;;;5035399;28;45288;-56
2022/12/19 08:42:59;;;;;;;;;14.33;11.33;;;;;;;;5026432;28;45462;-57
2022/12/19 08:45:25;;;;;;;;;9.67;8.00;;;;;;;;5033760;28;48806;-56
2022/12/19 08:47:50;;;;;;;;;13.67;11.00;;;;;;;;5023493;28;45558;-57
2022/12/19 08:50:15;;;;;;;;;10.33;10.00;;;;;;;;5031987;28;45239;-56
2022/12/19 08:52:40;;;;;;;;;11.00;8.33;;;;;;;;5031089;28;45424;-58
2022/12/19 08:55:06;;;;;;;;;12.67;12.67;;;;;;;;5028458;28;45426;-58
2022/12/19 08:57:31;;;;;;;;;11.00;10.00;;;;;;;;5030173;28;45435;-57
2022/12/19 08:59:56;;;;;;;;;10.67;9.33;;;;;;;;5036167;28;45698;-58
2022/12/19 09:02:23;;;;;;;;;13.33;10.67;;;;;;;;5031375;28;45461;-58
2022/12/19 09:04:48;;;;;;;;;13.33;13.00;;;;;;;;5024963;28;46297;-57
2022/12/19 09:07:13;;;;;;;;;12.00;11.00;;;;;;;;5028593;28;45239;-58
2022/12/19 09:09:38;;;;;;;;;14.67;12.67;;;;;;;;5025109;28;45400;-58
2022/12/19 09:12:03;;;;;;;;;11.33;11.33;;;;;;;;5036694;28;45292;-58
2022/12/19 09:14:35;;;;;;;;;13.33;11.00;;;;;;;;5025614;28;46083;-57
2022/12/19 09:17:00;;;;;;;;;12.33;12.33;;;;;;;;5023331;28;46242;-58
2022/12/19 09:19:26;;;;;;;;;15.33;14.33;;;;;;;;5029608;28;45509;-58
2022/12/19 09:21:51;;;;;;;;;10.33;10.33;;;;;;;;5032872;28;45606;-58
2022/12/19 09:24:16;;;;;;;;;11.00;9.00;;;;;;;;5026938;28;45352;-58
2022/12/19 09:26:43;;;;;;;;;10.67;9.33;;;;;;;;5031550;28;45441;-58
2022/12/19 09:29:08;;;;;;;;;8.00;8.00;;;;;;;;5027122;28;45352;-58
2022/12/19 09:31:33;;;;;;;;;10.33;10.33;;;;;;;;5029438;28;45443;-57
2022/12/19 09:33:59;;;;;;;;;12.00;11.00;;;;;;;;5032258;28;46322;-58
2022/12/19 09:36:24;;;;;;;;;11.33;7.67;;;;;;;;5033689;28;45454;-57
2022/12/19 09:38:51;;;;;;;;;13.00;12.00;;;;;;;;5031638;28;45904;-57
2022/12/19 09:41:20;;;;;;;;;8.00;8.00;;;;;;;;5032408;28;45978;-57
2022/12/19 09:43:45;;;;;;;;;14.67;9.00;;;;;;;;5031937;28;47856;-57
2022/12/19 09:46:13;;;;;;;;;12.00;12.00;;;;;;;;5026179;28;46644;-57
2022/12/19 09:48:39;;;;;;;;;15.67;12.00;;;;;;;;5031337;28;45554;-57
2022/12/19 09:51:07;;;;;;;;;12.67;12.00;;;;;;;;5032351;28;45450;-58
2022/12/19 09:53:39;;;;;;;;;11.00;11.00;;;;;;;;5033769;28;45852;-56
2022/12/19 09:56:09;;;;;;;;;11.67;9.00;;;;;;;;5040427;28;45466;-57
2022/12/19 09:58:38;;;;;;;;;8.67;8.67;;;;;;;;5033458;28;45385;-58
2022/12/19 10:01:11;;;;;;;;;13.67;11.67;;;;;;;;5035612;28;45470;-58
2022/12/19 10:03:37;;;;;;;;;10.33;10.33;;;;;;;;5030284;28;45446;-57
2022/12/19 10:06:02;;;;;;;;;17.00;11.67;;;;;;;;5029086;28;45370;-56
2022/12/19 10:08:33;;;;;;;;;8.33;8.33;;;;;;;;5027056;28;45168;-57
2022/12/19 10:11:04;;;;;;;;;11.33;8.67;;;;;;;;5028126;28;45307;-58
2022/12/19 10:13:38;;;;;;;;;9.67;9.67;;;;;;;;5029558;28;45577;-58
2022/12/19 10:16:03;;;;;;;;;13.00;12.00;;;;;;;;5029168;28;45557;-58
2022/12/19 10:18:46;;;;;;;;;10.33;10.33;;;;;;;;5032936;28;45549;-58
2022/12/19 10:21:20;;;;;;;;;12.67;10.33;;;;;;;;5024474;28;45214;-59
2022/12/19 10:23:45;;;;;;;;;8.00;8.00;;;;;;;;5032404;28;45460;-57
2022/12/19 10:26:22;;;;;;;;;13.33;12.33;;;;;;;;5028875;28;45585;-56
2022/12/19 10:28:55;;;;;;;;;9.67;9.67;;;;;;;;5031009;28;45606;-57
2022/12/19 10:31:23;;;;;;;;;13.00;13.00;;;;;;;;5033443;28;45404;-57
2022/12/19 10:33:51;;;;;;;;;8.67;8.67;;;;;;;;5028214;28;45821;-57
2022/12/19 10:36:16;;;;;;;;;10.67;9.00;;;;;;;;5028774;28;45834;-57
2022/12/19 10:39:04;;;;;;;;;13.67;9.67;;;;;;;;5030472;28;45853;-57
2022/12/19 10:41:31;;;;;;;;;11.67;10.00;;;;;;;;5032151;28;45638;-57
2022/12/19 10:44:05;;;;;;;;;9.67;9.67;;;;;;;;5027077;28;45285;-57
2022/12/19 10:46:36;;;;;;;;;13.33;9.67;;;;;;;;5021921;28;45485;-58
2022/12/19 10:49:09;;;;;;;;;9.33;9.33;;;;;;;;5022478;28;46690;-57
2022/12/19 10:51:34;;;;;;;;;15.67;10.67;;;;;;;;5027861;28;45427;-57
2022/12/19 10:54:00;;;;;;;;;13.33;10.00;;;;;;;;5029076;28;45493;-57
2022/12/19 10:56:26;;;;;;;;;12.00;10.00;;;;;;;;5023369;28;45331;-55
2022/12/19 10:59:00;;;;;;;;;13.33;12.33;;;;;;;;5030190;28;45488;-57
2022/12/19 11:01:30;;;;;;;;;15.33;13.67;;;;;;;;5022696;28;45727;-58
2022/12/19 11:04:18;;;;;;;;;10.33;9.00;;;;;;;;5033461;28;46174;-57
2022/12/19 11:06:48;;;;;;;;;13.00;10.00;;;;;;;;5025935;28;45494;-58
2022/12/19 11:09:42;;;;;;;;;10.33;9.00;;;;;;;;5030610;28;45533;-57
2022/12/19 11:12:10;;;;;;;;;12.33;12.33;;;;;;;;5023176;28;45566;-57
2022/12/19 11:14:36;;;;;;;;;8.00;7.67;;;;;;;;5025116;28;45607;-57
2022/12/19 11:17:02;;;;;;;;;11.33;8.00;;;;;;;;5023707;28;45446;-57
2022/12/19 11:19:28;;;;;;;;;10.00;10.00;;;;;;;;5027600;28;45530;-57
2022/12/19 11:21:56;;;;;;;;;7.67;7.67;;;;;;;;5030538;28;45804;-57
2022/12/19 11:24:23;;;;;;;;;9.00;9.00;;;;;;;;5032924;28;46157;-56
2022/12/19 11:26:49;;;;;;;;;6.00;6.00;;;;;;;;5031973;28;45386;-56
2022/12/19 11:29:40;;;;;;;;;7.00;7.00;;;;;;;;5031827;28;45456;-57
2022/12/19 11:32:20;;;;;;;;;7.00;7.00;;;;;;;;5028963;28;45313;-58
2022/12/19 11:34:48;;;;;;;;;12.33;8.33;;;;;;;;5030126;28;45619;-57
2022/12/19 11:37:13;;;;;;;;;7.00;7.00;;;;;;;;5028113;28;45656;-58
2022/12/19 11:39:44;;;;;;;;;6.33;6.33;;;;;;;;5023734;28;45426;-58
2022/12/19 11:42:14;;;;;;;;;9.33;7.33;;;;;;;;5027195;28;45590;-58
2022/12/19 11:44:47;;;;;;;;;7.33;5.00;;;;;;;;5025708;28;45493;-59
2022/12/19 11:47:15;;;;;;;;;6.67;6.67;;;;;;;;5029305;28;45417;-59
2022/12/19 11:49:47;;;;;;;;;4.00;4.00;;;;;;;;5023804;28;45545;-58
2022/12/19 11:52:22;;;;;;;;;7.00;7.00;;;;;;;;5050444;28;45720;-58
2022/12/19 11:55:04;;;;;;;;;8.33;7.00;;;;;;;;5027616;28;45466;-58
2022/12/19 11:57:29;;;;;;;;;9.00;5.33;;;;;;;;5035789;28;45441;-58
2022/12/19 11:59:54;;;;;;;;;8.00;6.00;;;;;;;;5035828;28;45446;-58
2022/12/19 12:02:23;;;;;;;;;5.00;4.00;;;;;;;;5022720;28;45462;-58
2022/12/19 12:04:48;;;;;;;;;5.00;5.00;;;;;;;;5031062;28;46199;-58
2022/12/19 12:07:13;;;;;;;;;9.00;4.33;;;;;;;;5028051;28;45358;-58
2022/12/19 12:09:38;;;;;;;;;6.00;5.00;;;;;;;;5030592;28;45491;-57
2022/12/19 12:12:10;;;;;;;;;5.33;5.33;;;;;;;;5027030;28;45500;-57
2022/12/19 12:14:46;;;;;;;;;5.00;5.00;;;;;;;;5029712;28;46376;-58
2022/12/19 12:17:34;;;;;;;;;5.00;4.00;;;;;;;;5032126;28;45449;-58
2022/12/19 12:20:08;;;;;;;;;5.00;5.00;;;;;;;;5026333;28;45350;-58
2022/12/19 12:22:51;;;;;;;;;2.00;2.00;;;;;;;;5034937;28;45740;-58
2022/12/19 12:25:25;;;;;;;;;6.33;5.00;;;;;;;;5035118;28;46032;-58
2022/12/19 12:28:02;;;;;;;;;5.00;4.00;;;;;;;;5034171;28;45447;-58
2022/12/19 12:30:30;;;;;;;;;4.67;4.67;;;;;;;;5029748;28;45439;-58
2022/12/19 12:33:14;;;;;;;;;4.00;4.00;;;;;;;;5032506;28;45284;-58
2022/12/19 12:35:44;;;;;;;;;6.00;6.00;;;;;;;;5027481;28;46382;-58
2022/12/19 12:38:12;;;;;;;;;4.00;4.00;;;;;;;;5030346;28;45678;-58
2022/12/19 12:40:37;;;;;;;;;7.00;5.00;;;;;;;;5028460;28;45260;-58
2022/12/19 12:43:05;;;;;;;;;5.00;5.00;;;;;;;;5036499;28;45348;-58
2022/12/19 12:45:41;;;;;;;;;4.00;4.00;;;;;;;;5035862;28;47061;-57
2022/12/19 12:48:16;;;;;;;;;6.33;5.00;;;;;;;;5032608;28;45410;-58
2022/12/19 12:50:41;;;;;;;;;5.33;4.67;;;;;;;;5033033;28;45512;-58
2022/12/19 12:53:08;;;;;;;;;5.00;5.00;;;;;;;;5028802;28;45519;-58
2022/12/19 12:55:38;;;;;;;;;6.33;5.00;;;;;;;;5030841;28;46161;-57
2022/12/19 12:58:04;;;;;;;;;6.67;6.67;;;;;;;;5028477;28;45431;-58
2022/12/19 13:00:30;;;;;;;;;4.00;4.00;;;;;;;;5042354;28;45393;-58
2022/12/19 13:03:13;;;;;;;;;7.33;6.33;;;;;;;;5035118;28;45403;-58
2022/12/19 13:06:03;;;;;;;;;6.67;6.00;;;;;;;;5033965;28;45483;-57
2022/12/19 13:08:34;;;;;;;;;6.67;6.67;;;;;;;;5029845;28;46760;-57
2022/12/19 13:11:02;;;;;;;;;8.33;7.00;;;;;;;;5028091;28;45414;-56
2022/12/19 13:13:46;;;;;;;;;5.00;5.00;;;;;;;;5033545;28;45544;-56
2022/12/19 13:16:30;;;;;;;;;6.00;6.00;;;;;;;;5027810;28;46254;-58
2022/12/19 13:19:16;;;;;;;;;4.67;4.67;;;;;;;;5021152;28;45355;-57
2022/12/19 13:22:00;;;;;;;;;8.67;4.67;;;;;;;;5024053;28;45801;-57
2022/12/19 13:24:36;;;;;;;;;7.00;6.67;;;;;;;;5031374;28;45604;-57
2022/12/19 13:27:01;;;;;;;;;9.00;7.00;;;;;;;;5023437;28;46425;-58
2022/12/19 13:29:28;;;;;;;;;7.33;6.33;;;;;;;;5027827;28;45551;-58
2022/12/19 13:32:11;;;;;;;;;7.33;5.00;;;;;;;;5030315;28;46387;-55
2022/12/19 13:34:36;;;;;;;;;5.00;1.00;;;;;;;;5027367;28;45474;-55
2022/12/19 13:37:08;;;;;;;;;5.67;5.67;;;;;;;;5019107;28;45595;-55
2022/12/19 13:39:36;;;;;;;;;4.00;4.00;;;;;;;;5034959;28;45534;-55
2022/12/19 13:44:55;;;;;;;;;5.67;5.67;;;;;;;;5034580;28;45545;-54
2022/12/19 13:47:21;;;;;;;;;4.33;4.33;;;;;;;;5032928;28;46315;-54
2022/12/19 13:49:46;;;;;;;;;4.00;4.00;;;;;;;;5026552;28;45455;-56
2022/12/19 13:52:13;;;;;;;;;6.00;6.00;;;;;;;;5024882;28;45446;-54
2022/12/19 13:54:47;;;;;;;;;5.00;5.00;;;;;;;;5028337;28;45454;-55
2022/12/19 13:57:23;;;;;;;;;7.33;6.00;;;;;;;;5032622;28;45394;-56
2022/12/19 13:59:49;;;;;;;;;5.00;5.00;;;;;;;;5024336;28;46933;-55
2022/12/19 14:02:19;;;;;;;;;9.00;7.00;;;;;;;;5030076;28;45325;-56
2022/12/19 14:04:44;;;;;;;;;5.00;5.00;;;;;;;;5029981;28;45597;-56
2022/12/19 14:07:31;;;;;;;;;5.33;5.00;;;;;;;;5026860;28;46562;-54
2022/12/19 14:09:56;;;;;;;;;7.33;5.33;;;;;;;;5028513;28;45962;-56
2022/12/19 14:15:24;;;;;;;;;6.33;6.33;;;;;;;;5025895;28;45490;-55
2022/12/19 14:17:49;;;;;;;;;6.67;5.67;;;;;;;;5027544;28;48590;-56
2022/12/19 14:20:20;;;;;;;;;7.67;6.00;;;;;;;;5034192;28;45285;-55
2022/12/19 14:22:45;;;;;;;;;4.33;4.33;;;;;;;;5027711;28;45822;-56
2022/12/19 14:25:10;;;;;;;;;5.00;5.00;;;;;;;;5021313;28;45590;-56
2022/12/19 14:27:37;;;;;;;;;5.33;4.00;;;;;;;;5031646;28;47128;-56
2022/12/19 14:30:04;;;;;;;;;7.00;6.33;;;;;;;;5037913;28;45505;-54
2022/12/19 14:32:30;;;;;;;;;5.00;5.00;;;;;;;;5026576;28;45745;-53
2022/12/19 14:34:57;;;;;;;;;6.00;4.67;;;;;;;;5024441;28;45888;-55
2022/12/19 14:37:27;;;;;;;;;5.00;5.00;;;;;;;;5020290;28;45406;-54
2022/12/19 14:39:56;;;;;;;;;7.67;5.67;;;;;;;;5030695;28;45458;-56
2022/12/19 14:45:24;;;;;;;;;6.33;5.67;;;;;;;;5021936;28;45640;-56
2022/12/19 14:47:49;;;;;;;;;10.00;7.00;;;;;;;;5025085;28;45339;-54
2022/12/19 14:50:27;;;;;;;;;5.33;5.33;;;;;;;;5022033;28;45329;-55
2022/12/19 14:53:14;;;;;;;;;6.67;6.00;;;;;;;;5030953;28;45762;-54
2022/12/19 14:55:40;;;;;;;;;7.33;6.00;;;;;;;;5029319;28;45415;-54
2022/12/19 14:58:09;;;;;;;;;7.00;7.00;;;;;;;;5030428;28;45232;-55
2022/12/19 15:00:43;;;;;;;;;7.00;5.67;;;;;;;;5024069;28;45391;-55
2022/12/19 15:03:15;;;;;;;;;5.00;5.00;;;;;;;;5030919;28;45378;-56
2022/12/19 15:05:40;;;;;;;;;4.33;2.33;;;;;;;;5035269;28;45493;-55
2022/12/19 15:08:08;;;;;;;;;8.00;7.00;;;;;;;;5033284;28;46300;-55
2022/12/19 15:10:34;;;;;;;;;4.00;4.00;;;;;;;;5026640;28;45397;-56
2022/12/19 15:13:20;;;;;;;;;7.67;6.33;;;;;;;;5033513;28;45477;-54
2022/12/19 15:15:57;;;;;;;;;6.33;6.00;;;;;;;;5031383;28;45384;-56
2022/12/19 15:18:27;;;;;;;;;4.00;4.00;;;;;;;;5025362;28;46901;-56
2022/12/19 15:20:54;;;;;;;;;7.00;5.67;;;;;;;;5023885;28;45356;-55
2022/12/19 15:23:20;;;;;;;;;5.33;4.00;;;;;;;;5027914;28;45478;-54
2022/12/19 15:25:45;;;;;;;;;8.00;7.00;;;;;;;;5038503;28;45627;-56
2022/12/19 15:28:15;;;;;;;;;7.00;6.00;;;;;;;;5031605;28;46020;-55
2022/12/19 15:30:41;;;;;;;;;7.33;6.33;;;;;;;;5019720;28;45569;-56
2022/12/19 15:33:14;;;;;;;;;5.33;5.00;;;;;;;;5030024;28;45335;-54
2022/12/19 15:35:39;;;;;;;;;7.33;6.00;;;;;;;;5028904;28;45477;-54
2022/12/19 15:38:04;;;;;;;;;5.33;5.33;;;;;;;;5029594;28;46523;-55
2022/12/19 15:40:29;;;;;;;;;8.00;8.00;;;;;;;;5034838;28;45463;-56
2022/12/19 15:42:56;;;;;;;;;7.67;5.67;;;;;;;;5023177;28;45342;-55
2022/12/19 15:45:21;;;;;;;;;6.67;6.00;;;;;;;;5030465;28;45410;-55
2022/12/19 15:47:47;;;;;;;;;7.00;7.00;;;;;;;;5029850;28;45844;-56
2022/12/19 15:50:21;;;;;;;;;10.33;10.33;;;;;;;;5027859;28;45218;-55
2022/12/19 15:52:47;;;;;;;;;6.00;6.00;;;;;;;;5018219;28;45409;-55
2022/12/19 15:55:16;;;;;;;;;5.00;5.00;;;;;;;;5031388;28;45371;-56
2022/12/19 15:57:43;;;;;;;;;8.33;4.00;;;;;;;;5025255;28;46649;-56
2022/12/19 16:00:17;;;;;;;;;5.00;5.00;;;;;;;;5039273;28;45915;-55
2022/12/19 16:02:43;;;;;;;;;4.67;4.67;;;;;;;;5033879;28;45706;-55
2022/12/19 16:05:09;;;;;;;;;3.67;3.00;;;;;;;;5021109;28;45445;-54
2022/12/19 16:07:34;;;;;;;;;9.00;6.67;;;;;;;;5031838;28;45404;-55
2022/12/19 16:09:59;;;;;;;;;4.00;4.00;;;;;;;;5020698;28;45468;-55
2022/12/19 16:12:29;;;;;;;;;10.00;8.00;;;;;;;;5036847;28;45489;-54
2022/12/19 16:14:57;;;;;;;;;4.00;4.00;;;;;;;;5027633;28;45739;-56
2022/12/19 16:17:23;;;;;;;;;4.33;3.33;;;;;;;;5030354;28;45366;-56
2022/12/19 16:19:49;;;;;;;;;6.00;6.00;;;;;;;;5031174;28;45469;-55
2022/12/19 16:22:19;;;;;;;;;6.00;6.00;;;;;;;;5025838;28;45676;-55
2022/12/19 16:24:44;;;;;;;;;6.00;6.00;;;;;;;;5022398;28;45417;-56
2022/12/19 16:27:16;;;;;;;;;4.00;4.00;;;;;;;;5028968;28;45485;-54
2022/12/19 16:29:41;;;;;;;;;7.00;6.00;;;;;;;;5027623;28;45558;-53
2022/12/19 16:32:09;;;;;;;;;5.00;5.00;;;;;;;;5040155;28;45555;-55
2022/12/19 16:34:34;;;;;;;;;5.00;5.00;;;;;;;;5026446;28;45485;-55
2022/12/19 16:36:59;;;;;;;;;7.33;4.00;;;;;;;;5031996;28;45896;-58
2022/12/19 16:39:24;;;;;;;;;7.33;6.00;;;;;;;;5023347;28;45342;-58
2022/12/19 16:41:49;;;;;;;;;6.67;6.00;;;;;;;;5026141;28;45482;-58
2022/12/19 16:44:17;;;;;;;;;7.33;5.33;;;;;;;;5032938;28;45797;-59
2022/12/19 16:46:43;;;;;;;;;6.00;6.00;;;;;;;;5033612;28;46570;-58
2022/12/19 16:49:16;;;;;;;;;6.67;5.00;;;;;;;;5033351;28;45522;-59
2022/12/19 16:51:42;;;;;;;;;8.00;7.00;;;;;;;;5025909;28;45747;-59
2022/12/19 16:54:08;;;;;;;;;4.00;4.00;;;;;;;;5025926;28;45922;-59
2022/12/19 16:56:35;;;;;;;;;8.00;7.33;;;;;;;;5021703;28;45645;-59
2022/12/19 16:59:02;;;;;;;;;9.33;7.00;;;;;;;;5029477;28;45595;-59
2022/12/19 17:01:28;;;;;;;;;5.00;3.67;;;;;;;;5033092;28;45426;-57
2022/12/19 17:03:53;;;;;;;;;2.67;2.67;;;;;;;;5032823;28;45297;-60
2022/12/19 17:06:19;;;;;;;;;7.00;6.33;;;;;;;;5029360;28;45478;-59
2022/12/19 17:08:45;;;;;;;;;9.00;5.00;;;;;;;;5030251;28;45478;-59
2022/12/19 17:11:12;;;;;;;;;6.67;6.00;;;;;;;;5024674;28;45772;-59
2022/12/19 17:13:37;;;;;;;;;8.00;8.00;;;;;;;;5031607;28;46432;-59
2022/12/19 17:16:03;;;;;;;;;6.33;6.00;;;;;;;;5035081;28;45387;-59
2022/12/19 17:18:31;;;;;;;;;9.67;7.00;;;;;;;;5026407;28;45400;-59
2022/12/19 17:20:57;;;;;;;;;8.00;6.00;;;;;;;;5031507;28;45335;-60
2022/12/19 17:23:24;;;;;;;;;5.00;5.00;;;;;;;;5025525;28;45322;-60
2022/12/19 17:25:49;;;;;;;;;12.33;11.00;;;;;;;;5023857;28;46351;-60
2022/12/19 17:28:15;;;;;;;;;6.67;6.67;;;;;;;;5030820;28;45373;-60
2022/12/19 17:30:42;;;;;;;;;6.33;6.33;;;;;;;;5018848;28;45462;-60
2022/12/19 17:33:10;;;;;;;;;5.33;5.33;;;;;;;;5025169;28;45852;-61
2022/12/19 17:35:36;;;;;;;;;8.33;7.00;;;;;;;;5036383;28;45517;-60
2022/12/19 17:38:02;;;;;;;;;7.00;6.67;;;;;;;;5020678;28;45285;-59
2022/12/19 17:40:29;;;;;;;;;7.00;5.00;;;;;;;;5026048;28;45433;-59
2022/12/19 17:42:55;;;;;;;;;7.33;5.67;;;;;;;;5032222;28;45300;-59
2022/12/19 17:45:21;;;;;;;;;9.00;8.67;;;;;;;;5027918;28;45473;-59
2022/12/19 17:47:47;;;;;;;;;8.00;7.00;;;;;;;;5030590;28;45510;-59
2022/12/19 17:50:22;;;;;;;;;6.33;6.33;;;;;;;;5034766;28;45601;-59
2022/12/19 17:52:48;;;;;;;;;11.33;6.67;;;;;;;;5028008;28;45556;-59
2022/12/19 17:55:16;;;;;;;;;7.33;7.33;;;;;;;;5027738;28;46635;-59
2022/12/19 17:57:41;;;;;;;;;7.33;7.33;;;;;;;;5031425;28;45507;-59
2022/12/19 18:00:06;;;;;;;;;8.67;7.33;;;;;;;;5030389;28;45583;-59
2022/12/19 18:02:34;;;;;;;;;6.00;6.00;;;;;;;;5037300;28;45418;-59
2022/12/19 18:05:00;;;;;;;;;7.67;7.67;;;;;;;;5035181;28;47141;-60
2022/12/19 18:07:25;;;;;;;;;8.33;8.33;;;;;;;;5031392;28;45703;-59
2022/12/19 18:09:50;;;;;;;;;6.67;6.67;;;;;;;;5033034;28;45459;-60
2022/12/19 18:12:16;;;;;;;;;9.00;6.67;;;;;;;;5030236;28;45486;-60
2022/12/19 18:14:41;;;;;;;;;8.00;7.33;;;;;;;;5030594;28;45339;-60
2022/12/19 18:17:09;;;;;;;;;5.67;5.67;;;;;;;;5032721;28;45506;-60
2022/12/19 18:19:34;;;;;;;;;9.33;8.00;;;;;;;;5034834;28;45477;-60
2022/12/19 18:21:59;;;;;;;;;7.67;7.67;;;;;;;;5033590;28;45485;-59
2022/12/19 18:24:25;;;;;;;;;7.00;7.00;;;;;;;;5029626;28;46014;-60
2022/12/19 18:26:50;;;;;;;;;8.67;8.67;;;;;;;;5033901;28;45331;-60
2022/12/19 18:29:15;;;;;;;;;9.33;9.33;;;;;;;;5029010;28;45505;-59
2022/12/19 18:31:40;;;;;;;;;13.67;11.00;;;;;;;;5033246;28;45535;-60
2022/12/19 18:34:06;;;;;;;;;8.00;8.00;;;;;;;;5027799;28;46278;-60
2022/12/19 18:36:41;;;;;;;;;8.33;8.33;;;;;;;;5033078;28;45363;-60
2022/12/19 18:39:39;;;;;;;;;9.00;9.00;;;;;;;;5026474;28;45492;-61
2022/12/19 18:42:24;;;;;;;;;16.33;10.00;;;;;;;;5017088;28;45370;-63
2022/12/19 18:44:50;;;;;;;;;6.33;6.33;;;;;;;;5036173;28;45530;-62
2022/12/19 18:47:20;;;;;;;;;9.33;9.00;;;;;;;;5023033;28;45584;-62
2022/12/19 18:49:45;;;;;;;;;9.33;9.33;;;;;;;;5031862;28;45371;-62
2022/12/19 18:52:10;;;;;;;;;10.67;7.00;;;;;;;;5025969;28;45418;-62
2022/12/19 18:54:36;;;;;;;;;8.67;8.67;;;;;;;;5021166;28;47423;-63
2022/12/19 18:57:01;;;;;;;;;8.00;8.00;;;;;;;;5026753;28;45359;-63
2022/12/19 18:59:26;;;;;;;;;6.00;6.00;;;;;;;;5026437;28;45269;-61
2022/12/19 19:01:54;;;;;;;;;9.67;8.33;;;;;;;;5027748;28;45622;-62
2022/12/19 19:04:20;;;;;;;;;8.00;6.33;;;;;;;;5029506;28;45800;-62
2022/12/19 19:06:46;;;;;;;;;8.33;8.00;;;;;;;;5024277;28;45521;-62
2022/12/19 19:09:15;;;;;;;;;7.00;7.00;;;;;;;;5027109;28;45659;-63
2022/12/19 19:11:41;;;;;;;;;9.33;7.67;;;;;;;;5019664;28;45544;-62
2022/12/19 19:14:06;;;;;;;;;8.67;7.00;;;;;;;;5033054;28;46054;-62
2022/12/19 19:16:32;;;;;;;;;6.00;6.00;;;;;;;;5030141;28;45706;-62
2022/12/19 19:18:57;;;;;;;;;6.00;6.00;;;;;;;;5032946;28;45357;-63
2022/12/19 19:21:25;;;;;;;;;7.33;7.33;;;;;;;;5032288;28;45472;-63
2022/12/19 19:23:54;;;;;;;;;7.00;7.00;;;;;;;;5023508;28;46298;-62
2022/12/19 19:26:19;;;;;;;;;7.33;7.33;;;;;;;;5030781;28;45681;-63
2022/12/19 19:28:44;;;;;;;;;6.67;6.67;;;;;;;;5027267;28;45948;-63
2022/12/19 19:31:12;;;;;;;;;7.33;6.00;;;;;;;;5031296;28;45604;-62
2022/12/19 19:33:39;;;;;;;;;12.67;9.00;;;;;;;;5033864;28;46251;-68
2022/12/19 19:36:10;;;;;;;;;7.33;7.33;;;;;;;;5028682;28;45550;-60
2022/12/19 19:38:36;;;;;;;;;7.67;7.00;;;;;;;;5033348;28;45762;-59
2022/12/19 19:41:01;;;;;;;;;5.67;5.67;;;;;;;;5033460;28;45363;-60
2022/12/19 19:43:32;;;;;;;;;7.33;6.67;;;;;;;;5036828;28;47133;-49
2022/12/19 19:45:58;;;;;;;;;9.00;9.00;;;;;;;;5025662;28;45458;-54
2022/12/19 19:48:23;;;;;;;;;14.33;12.33;;;;;;;;5032549;28;45347;-51
2022/12/19 19:50:48;;;;;;;;;10.00;10.00;;;;;;;;5036049;28;45424;-56
2022/12/19 19:53:13;;;;;;;;;17.00;16.00;;;;;;;;5033048;28;45706;-66
2022/12/19 19:58:14;;;;;;;;;8.33;8.33;;;;;;;;5515650;22;46023;-67
2022/12/19 20:00:39;;;;;;;;;13.33;11.00;;;;;;;;5003287;28;45535;-69
2022/12/19 20:03:04;;;;;;;;;11.00;10.67;;;;;;;;5015479;28;46253;-65
2022/12/19 20:05:29;;;;;;;;;10.67;9.00;;;;;;;;5022135;28;45581;-65
2022/12/19 20:07:55;;;;;;;;;31.67;25.00;;;;;;;;5023516;28;45533;-65
2022/12/19 20:10:20;;;;;;;;;7.33;7.33;;;;;;;;5017023;28;45280;-65
2022/12/19 20:12:45;;;;;;;;;8.00;7.33;;;;;;;;5025401;28;45613;-66
2022/12/19 20:15:10;;;;;;;;;9.33;8.33;;;;;;;;5016133;28;45437;-65
2022/12/19 20:17:36;;;;;;;;;9.00;9.00;;;;;;;;5019256;28;45463;-61
2022/12/19 20:20:01;;;;;;;;;6.33;6.33;;;;;;;;5012120;28;45457;-63
2022/12/19 20:22:27;;;;;;;;;10.67;8.67;;;;;;;;5015085;28;45553;-62
2022/12/19 20:24:53;;;;;;;;;7.00;7.00;;;;;;;;5025363;28;45460;-67